Flight Track Log - Related Links

Times and Time Zones

All times are in EDT time to prevent confusion due to time zone crossing. See the DAL918 flight status page for this flight to view local times or setup timezone preferences in your user account.

Time Position Orientation Groundspeed Altitude Reporting Facility
EDT Latitude Longitude Course Direction KTS MPH feet Rate Location/Type
Mon 07:15:07 PM 33.6289 -84.3756 85° East 372 428 2,700  Level Atlanta Center
Mon 07:16:07 PM 33.6042 -84.2983 111° Southeast 300 345 4,700 2,150 Climbing Atlanta Center
Mon 07:17:00 PM 33.5896 -83.9572 86° East  Level Estimated
Mon 07:17:07 PM 33.5939 -84.2083 98° East 266 306 7,000  Level Atlanta Center
Mon 07:18:00 PM 33.5984 -83.8392 85° East  Level FlightAware Approximate
Mon 07:18:07 PM 33.6000 -84.1036 86° East 291 335 9,400  Level Atlanta Center
Mon 07:19:00 PM 33.6072 -83.7212 85° East  Level FlightAware Approximate
Mon 07:19:07 PM 33.6042 -84.0064 87° East 330 380 10,700  Level Atlanta Center
Mon 07:20:00 PM 33.6158 -83.6031 85° East  Level FlightAware Approximate
Mon 07:20:07 PM 33.6022 -83.8917 91° East 348 400 12,400  Level Atlanta Center
Mon 07:21:07 PM 33.6039 -83.7694 89° East 354 407 14,300 1,950 Climbing Atlanta Center
Mon 07:22:07 PM 33.6078 -83.6347 88° East 362 417 16,300 1,400 Climbing Atlanta Center
Mon 07:23:07 PM 33.6114 -83.5000 88° East 379 436 17,100 350 Climbing Atlanta Center
Mon 07:24:07 PM 33.6150 -83.3653 88° East 390 449 17,000 -50 Descending Atlanta Center
Mon 07:25:07 PM 33.6206 -83.2331 87° East 401 461 17,000 -1,300 Level Atlanta Center
Mon 07:26:07 PM 33.6133 -83.1033 94° East 395 455 14,400 -2,550 Descending Atlanta Center
Mon 07:27:07 PM 33.6039 -82.9764 95° East 395 455 11,900 -1,700 Descending Atlanta Center
Mon 07:28:07 PM 33.6008 -82.8617 92° East 361 415 11,000 -1,100 Descending Atlanta Center
Mon 07:29:07 PM 33.5978 -82.7719 92° East 328 377 9,700 -1,200 Descending Atlanta Center
Mon 07:30:07 PM 33.5906 -82.6722 95° East 305 351 8,600 -950 Descending Atlanta Center
Mon 07:31:07 PM 33.5872 -82.5850 93° East 284 327 7,800 -1,150 Descending Atlanta Center
Mon 07:32:07 PM 33.5800 -82.4953 95° East 272 313 6,300 -1,350 Descending Atlanta Center
Mon 07:33:07 PM 33.5725 -82.4083 96° East 272 313 5,100 -1,050 Descending Atlanta Center
Mon 07:34:07 PM 33.5528 -82.3264 106° East 261 300 4,200 -750 Descending Atlanta Center
Mon 07:35:07 PM 33.5286 -82.2397 108° East 256 295 3,600 -600 Descending Atlanta Center

Login

Don't have an account? Register now (free) for customized features, flight alerts, and more!